Time;durP1;ratioP1;P1;durP2;ratioP2;P2;SDS_P1;SDS_P2;PMS_P1;PMS_P2;Temp;Humidity;BMP_temperature;BMP_pressure;BME280_temperature;BME280_humidity;BME280_pressure;Samples;Min_cycle;Max_cycle;Signal;HPM_P1;HPM_P2
2023/07/14 00:01:14;;;;;;;;;;;;;;;;;;5026215;28;19921;-60
2023/07/14 00:03:42;;;;;;;;;;;;;;;;;;5013982;28;19920;-60
2023/07/14 00:06:07;;;;;;;;;;;;;;;;;;5024159;28;20179;-60
2023/07/14 00:08:35;;;;;;;;;;;;;;;;;;5046195;28;20315;-60
2023/07/14 00:11:00;;;;;;;;;;;;;;;;;;5026999;28;19992;-60
2023/07/14 00:13:26;;;;;;;;;;;;;;;;;;5025347;28;19921;-60
2023/07/14 00:15:51;;;;;;;;;;;;;;;;;;5044599;28;19921;-60
2023/07/14 00:18:16;;;;;;;;;;;;;;;;;;5045303;28;20906;-60
2023/07/14 00:20:44;;;;;;;;;;;;;;;;;;5044499;28;20274;-61
2023/07/14 00:23:11;;;;;;;;;;;;;;;;;;5010144;28;20567;-60
2023/07/14 00:25:36;;;;;;;;;;;;;;;;;;5028390;28;19921;-60
2023/07/14 00:28:03;;;;;;;;;;;;;;;;;;5023046;28;20268;-61
2023/07/14 00:30:28;;;;;;;;;;;;;;;;;;5012929;28;20647;-60
2023/07/14 00:32:58;;;;;;;;;;;;;;;;;;5041701;28;19932;-60
2023/07/14 00:35:26;;;;;;;;;;;;;;;;;;5028450;28;20355;-60
2023/07/14 00:37:51;;;;;;;;;;;;;;;;;;5029495;28;19970;-60
2023/07/14 00:40:16;;;;;;;;;;;;;;;;;;5028076;28;20307;-60
2023/07/14 00:42:45;;;;;;;;;;;;;;;;;;5012489;28;19917;-59
2023/07/14 00:45:13;;;;;;;;;;;;;;;;;;5027485;28;19932;-59
2023/07/14 00:47:38;;;;;;;;;;;;;;;;;;5013542;28;19932;-59
2023/07/14 00:50:04;;;;;;;;;;;;;;;;;;5038907;28;19958;-59
2023/07/14 00:52:29;;;;;;;;;;;;;;;;;;5044686;28;19921;-59
2023/07/14 00:55:00;;;;;;;;;;;;;;;;;;5033013;28;20284;-60
2023/07/14 00:57:29;;;;;;;;;;;;;;;;;;5027454;28;20010;-60
2023/07/14 00:59:57;;;;;;;;;;;;;;;;;;5048170;28;19955;-60
2023/07/14 01:02:22;;;;;;;;;;;;;;;;;;5049729;28;19924;-60
2023/07/14 01:04:47;;;;;;;;;;;;;;;;;;5030335;28;19960;-60
2023/07/14 01:07:13;;;;;;;;;;;;;;;;;;5018262;28;19916;-60
2023/07/14 01:09:41;;;;;;;;;;;;;;;;;;5048602;28;20375;-60
2023/07/14 01:12:09;;;;;;;;;;;;;;;;;;5033864;28;19928;-60
2023/07/14 01:14:35;;;;;;;;;;;;;;;;;;5018838;28;19963;-60
2023/07/14 01:17:00;;;;;;;;;;;;;;;;;;5029816;28;20162;-60
2023/07/14 01:19:25;;;;;;;;;;;;;;;;;;5030810;28;20288;-60
2023/07/14 01:21:50;;;;;;;;;;;;;;;;;;5032569;28;21848;-60
2023/07/14 01:24:16;;;;;;;;;;;;;;;;;;5031017;28;19917;-60
2023/07/14 01:26:43;;;;;;;;;;;;;;;;;;5049587;28;19977;-60
2023/07/14 01:29:09;;;;;;;;;;;;;;;;;;5034670;28;19924;-60
2023/07/14 01:31:35;;;;;;;;;;;;;;;;;;5008604;28;19947;-60
2023/07/14 01:34:02;;;;;;;;;;;;;;;;;;5049033;28;19920;-60
2023/07/14 01:36:27;;;;;;;;;;;;;;;;;;5049489;28;20987;-60
2023/07/14 01:38:52;;;;;;;;;;;;;;;;;;5021506;28;19916;-60
2023/07/14 01:41:20;;;;;;;;;;;;;;;;;;5019465;28;19925;-60
2023/07/14 01:43:46;;;;;;;;;;;;;;;;;;5034469;28;19920;-60
2023/07/14 01:46:12;;;;;;;;;;;;;;;;;;5015725;28;19916;-60
2023/07/14 01:48:42;;;;;;;;;;;;;;;;;;5034831;28;20002;-60
2023/07/14 01:51:07;;;;;;;;;;;;;;;;;;5032206;28;19921;-60
2023/07/14 01:53:35;;;;;;;;;;;;;;;;;;5028857;28;19924;-60
2023/07/14 01:56:04;;;;;;;;;;;;;;;;;;5035931;28;19928;-60
2023/07/14 01:58:30;;;;;;;;;;;;;;;;;;5030042;28;20074;-61
2023/07/14 02:00:55;;;;;;;;;;;;;;;;;;5020434;28;20785;-60
2023/07/14 02:03:23;;;;;;;;;;;;;;;;;;5030459;28;20754;-60
2023/07/14 02:05:51;;;;;;;;;;;;;;;;;;5049415;28;19960;-60
2023/07/14 02:08:16;;;;;;;;;;;;;;;;;;5018181;28;19983;-60
2023/07/14 02:10:42;;;;;;;;;;;;;;;;;;5048322;28;19957;-60
2023/07/14 02:13:07;;;;;;;;;;;;;;;;;;5049290;28;20022;-61
2023/07/14 02:15:32;;;;;;;;;;;;;;;;;;5018788;28;19928;-60
2023/07/14 02:18:03;;;;;;;;;;;;;;;;;;5031193;28;20062;-60
2023/07/14 02:20:31;;;;;;;;;;;;;;;;;;5034874;28;19916;-60
2023/07/14 02:22:56;;;;;;;;;;;;;;;;;;5050592;28;19916;-60
2023/07/14 02:25:21;;;;;;;;;;;;;;;;;;5046866;28;19920;-60
2023/07/14 02:27:46;;;;;;;;;;;;;;;;;;5033674;28;20390;-60
2023/07/14 02:30:12;;;;;;;;;;;;;;;;;;5029536;28;19920;-59
2023/07/14 02:32:40;;;;;;;;;;;;;;;;;;5033200;28;20145;-60
2023/07/14 02:35:05;;;;;;;;;;;;;;;;;;5016996;28;19997;-60
2023/07/14 02:38:16;;;;;;;;;;;;;;;;;;5030440;28;19920;-60
2023/07/14 02:40:20;;;;;;;;;;;;;;;;;;5021077;28;19916;-59
2023/07/14 02:42:45;;;;;;;;;;;;;;;;;;5013878;28;21103;-60
2023/07/14 02:45:13;;;;;;;;;;;;;;;;;;5030289;28;20035;-59
2023/07/14 02:47:41;;;;;;;;;;;;;;;;;;5029633;28;20056;-59
2023/07/14 02:50:06;;;;;;;;;;;;;;;;;;5019245;28;19917;-60
2023/07/14 02:52:31;;;;;;;;;;;;;;;;;;5029049;28;19917;-59
2023/07/14 02:54:56;;;;;;;;;;;;;;;;;;5038106;28;19951;-59
2023/07/14 02:57:22;;;;;;;;;;;;;;;;;;5030850;28;19920;-59
2023/07/14 02:59:47;;;;;;;;;;;;;;;;;;5029030;28;19950;-60
2023/07/14 03:02:12;;;;;;;;;;;;;;;;;;5030776;28;19931;-59
2023/07/14 03:04:41;;;;;;;;;;;;;;;;;;5032044;28;19932;-60
2023/07/14 03:07:12;;;;;;;;;;;;;;;;;;5016932;28;20895;-59
2023/07/14 03:09:42;;;;;;;;;;;;;;;;;;5029572;28;19916;-60
2023/07/14 03:12:08;;;;;;;;;;;;;;;;;;5046962;28;19920;-60
2023/07/14 03:14:34;;;;;;;;;;;;;;;;;;5047207;28;19974;-59
2023/07/14 03:16:59;;;;;;;;;;;;;;;;;;5015384;28;19944;-60
2023/07/14 03:19:30;;;;;;;;;;;;;;;;;;5027805;28;20402;-60
2023/07/14 03:21:55;;;;;;;;;;;;;;;;;;5013627;28;20509;-59
2023/07/14 03:24:21;;;;;;;;;;;;;;;;;;5030022;28;19952;-61
2023/07/14 03:26:46;;;;;;;;;;;;;;;;;;5045900;28;20445;-60
2023/07/14 03:29:11;;;;;;;;;;;;;;;;;;5015299;28;20271;-60
2023/07/14 03:31:36;;;;;;;;;;;;;;;;;;5006484;28;19928;-60
2023/07/14 03:34:02;;;;;;;;;;;;;;;;;;5031080;28;19920;-60
2023/07/14 03:36:27;;;;;;;;;;;;;;;;;;5044347;28;20022;-60
2023/07/14 03:38:52;;;;;;;;;;;;;;;;;;5029068;28;19985;-60
2023/07/14 03:41:20;;;;;;;;;;;;;;;;;;5014255;28;20348;-60
2023/07/14 03:43:45;;;;;;;;;;;;;;;;;;5014606;28;20351;-60
2023/07/14 03:46:16;;;;;;;;;;;;;;;;;;5033488;28;19920;-60
2023/07/14 03:48:41;;;;;;;;;;;;;;;;;;5046439;28;19963;-60
2023/07/14 03:51:06;;;;;;;;;;;;;;;;;;5017121;28;19931;-59
2023/07/14 03:53:35;;;;;;;;;;;;;;;;;;5022662;28;19927;-60
2023/07/14 03:56:03;;;;;;;;;;;;;;;;;;5028610;28;19920;-60
2023/07/14 03:58:33;;;;;;;;;;;;;;;;;;5030014;28;20063;-60
2023/07/14 04:01:01;;;;;;;;;;;;;;;;;;5016697;28;19924;-59
2023/07/14 04:03:29;;;;;;;;;;;;;;;;;;5029697;28;20377;-59
2023/07/14 04:05:54;;;;;;;;;;;;;;;;;;5028421;28;20439;-61
2023/07/14 04:08:22;;;;;;;;;;;;;;;;;;5015724;28;20496;-59
2023/07/14 04:10:50;;;;;;;;;;;;;;;;;;5027935;28;19931;-59
2023/07/14 04:13:18;;;;;;;;;;;;;;;;;;5044617;28;19969;-59
2023/07/14 04:15:44;;;;;;;;;;;;;;;;;;5010374;28;19921;-59
2023/07/14 04:18:13;;;;;;;;;;;;;;;;;;5028818;28;19916;-60
2023/07/14 04:20:38;;;;;;;;;;;;;;;;;;5009139;28;20339;-59
2023/07/14 04:23:05;;;;;;;;;;;;;;;;;;5029552;28;19928;-60
2023/07/14 04:25:33;;;;;;;;;;;;;;;;;;5028413;28;20093;-60
2023/07/14 04:27:58;;;;;;;;;;;;;;;;;;5028071;28;19921;-60
2023/07/14 04:30:26;;;;;;;;;;;;;;;;;;5045787;28;20406;-60
2023/07/14 04:32:56;;;;;;;;;;;;;;;;;;5047567;28;20017;-60
2023/07/14 04:35:22;;;;;;;;;;;;;;;;;;5029769;28;20259;-60
2023/07/14 04:37:50;;;;;;;;;;;;;;;;;;5016546;28;19920;-59
2023/07/14 04:40:18;;;;;;;;;;;;;;;;;;5015951;28;19920;-61
2023/07/14 04:42:43;;;;;;;;;;;;;;;;;;5015619;28;19923;-60
2023/07/14 04:45:08;;;;;;;;;;;;;;;;;;5027802;28;19925;-60
2023/07/14 04:47:34;;;;;;;;;;;;;;;;;;5028408;28;19928;-61
2023/07/14 04:49:59;;;;;;;;;;;;;;;;;;5031833;28;19935;-60
2023/07/14 04:52:30;;;;;;;;;;;;;;;;;;5015364;28;19993;-60
2023/07/14 04:54:58;;;;;;;;;;;;;;;;;;5029496;28;19916;-60
2023/07/14 04:57:23;;;;;;;;;;;;;;;;;;5030552;28;20852;-60
2023/07/14 04:59:51;;;;;;;;;;;;;;;;;;5027743;28;19931;-61
2023/07/14 05:02:18;;;;;;;;;;;;;;;;;;5015204;28;19916;-60
2023/07/14 05:04:44;;;;;;;;;;;;;;;;;;5047534;28;20035;-61
2023/07/14 05:07:09;;;;;;;;;;;;;;;;;;5016216;28;20273;-60
2023/07/14 05:09:37;;;;;;;;;;;;;;;;;;5029363;28;19923;-60
2023/07/14 05:12:03;;;;;;;;;;;;;;;;;;5047248;28;20609;-60
2023/07/14 05:14:28;;;;;;;;;;;;;;;;;;5032209;28;19963;-60
2023/07/14 05:16:56;;;;;;;;;;;;;;;;;;5029565;28;20596;-60
2023/07/14 05:19:22;;;;;;;;;;;;;;;;;;5031563;28;20379;-60
2023/07/14 05:21:47;;;;;;;;;;;;;;;;;;5027520;28;20522;-60
2023/07/14 05:24:12;;;;;;;;;;;;;;;;;;5028730;28;19940;-60
2023/07/14 05:26:38;;;;;;;;;;;;;;;;;;5013623;28;19931;-60
2023/07/14 05:29:05;;;;;;;;;;;;;;;;;;5027880;28;19975;-63
2023/07/14 05:31:30;;;;;;;;;;;;;;;;;;5019539;28;19916;-61
2023/07/14 05:33:57;;;;;;;;;;;;;;;;;;5016031;28;20361;-60
2023/07/14 05:36:23;;;;;;;;;;;;;;;;;;5002374;28;19932;-60
2023/07/14 05:38:48;;;;;;;;;;;;;;;;;;5012453;28;20049;-61
2023/07/14 05:41:13;;;;;;;;;;;;;;;;;;5012247;28;20316;-61
2023/07/14 05:43:39;;;;;;;;;;;;;;;;;;5008491;28;19928;-59
2023/07/14 05:46:04;;;;;;;;;;;;;;;;;;4994591;28;20074;-60
2023/07/14 05:48:29;;;;;;;;;;;;;;;;;;5007718;28;19917;-60
2023/07/14 05:50:55;;;;;;;;;;;;;;;;;;5026328;28;20066;-61
2023/07/14 05:53:20;;;;;;;;;;;;;;;;;;4984960;28;19921;-60
2023/07/14 05:55:45;;;;;;;;;;;;;;;;;;4996116;28;19917;-61
2023/07/14 05:58:11;;;;;;;;;;;;;;;;;;5012010;28;19920;-60
2023/07/14 06:00:38;;;;;;;;;;;;;;;;;;5009587;28;20425;-61
2023/07/14 06:03:04;;;;;;;;;;;;;;;;;;5027817;28;19963;-61
2023/07/14 06:05:29;;;;;;;;;;;;;;;;;;4996295;28;21844;-63
2023/07/14 06:07:55;;;;;;;;;;;;;;;;;;4997442;28;19917;-61
2023/07/14 06:10:20;;;;;;;;;;;;;;;;;;5011039;28;20253;-62
2023/07/14 06:12:45;;;;;;;;;;;;;;;;;;5010674;28;19917;-61
2023/07/14 06:15:11;;;;;;;;;;;;;;;;;;5009202;28;19916;-62
2023/07/14 06:17:39;;;;;;;;;;;;;;;;;;5012356;28;19927;-61
2023/07/14 06:20:04;;;;;;;;;;;;;;;;;;5021733;28;19948;-61
2023/07/14 06:22:32;;;;;;;;;;;;;;;;;;5027462;28;19921;-63
2023/07/14 06:25:00;;;;;;;;;;;;;;;;;;5012403;28;19931;-59
2023/07/14 06:27:26;;;;;;;;;;;;;;;;;;4997638;28;19960;-62
2023/07/14 06:29:56;;;;;;;;;;;;;;;;;;5009304;28;19928;-62
2023/07/14 06:32:22;;;;;;;;;;;;;;;;;;5029161;28;20107;-61
2023/07/14 06:34:49;;;;;;;;;;;;;;;;;;5009499;28;19928;-64
2023/07/14 06:37:18;;;;;;;;;;;;;;;;;;5018752;28;20024;-61
2023/07/14 06:39:43;;;;;;;;;;;;;;;;;;5009709;28;19921;-61
2023/07/14 06:42:11;;;;;;;;;;;;;;;;;;5013425;28;19959;-60
2023/07/14 06:44:36;;;;;;;;;;;;;;;;;;5011805;28;21766;-61
2023/07/14 06:47:02;;;;;;;;;;;;;;;;;;5011573;28;20453;-61
2023/07/14 06:49:27;;;;;;;;;;;;;;;;;;5009005;28;20034;-61
2023/07/14 06:51:52;;;;;;;;;;;;;;;;;;5010993;28;19925;-61
2023/07/14 06:54:23;;;;;;;;;;;;;;;;;;5026015;28;19986;-61
2023/07/14 06:56:48;;;;;;;;;;;;;;;;;;5010465;28;19921;-61
2023/07/14 06:59:17;;;;;;;;;;;;;;;;;;4996148;28;19928;-61
2023/07/14 07:01:42;;;;;;;;;;;;;;;;;;4985447;28;19917;-61
2023/07/14 07:04:10;;;;;;;;;;;;;;;;;;5012695;28;19917;-61
2023/07/14 07:06:38;;;;;;;;;;;;;;;;;;5027271;28;19924;-61
2023/07/14 07:09:04;;;;;;;;;;;;;;;;;;5008868;28;19921;-62
2023/07/14 07:11:30;;;;;;;;;;;;;;;;;;5010108;28;20403;-62
2023/07/14 07:13:55;;;;;;;;;;;;;;;;;;5027165;28;20054;-64
2023/07/14 07:16:20;;;;;;;;;;;;;;;;;;4994024;28;19936;-62
2023/07/14 07:18:49;;;;;;;;;;;;;;;;;;5026172;28;19924;-62
2023/07/14 07:21:16;;;;;;;;;;;;;;;;;;4993939;28;19948;-62
2023/07/14 07:23:45;;;;;;;;;;;;;;;;;;5011149;28;19936;-62
2023/07/14 07:26:10;;;;;;;;;;;;;;;;;;5011578;28;20011;-63
2023/07/14 07:28:38;;;;;;;;;;;;;;;;;;5026846;28;19921;-62
2023/07/14 07:31:09;;;;;;;;;;;;;;;;;;5009993;28;19921;-62
2023/07/14 07:33:39;;;;;;;;;;;;;;;;;;5027683;28;19940;-62
2023/07/14 07:36:14;;;;;;;;;;;;;;;;;;5005978;28;19955;-62
2023/07/14 07:38:42;;;;;;;;;;;;;;;;;;5046608;28;19954;-62
2023/07/14 07:41:08;;;;;;;;;;;;;;;;;;5019328;28;19920;-62
2023/07/14 07:43:33;;;;;;;;;;;;;;;;;;5043140;28;19928;-62
2023/07/14 07:45:58;;;;;;;;;;;;;;;;;;5026199;28;19924;-62
2023/07/14 07:48:27;;;;;;;;;;;;;;;;;;5045238;28;19923;-62
2023/07/14 07:50:52;;;;;;;;;;;;;;;;;;5029518;28;19920;-61
2023/07/14 07:53:20;;;;;;;;;;;;;;;;;;5013546;28;19958;-60
2023/07/14 07:55:47;;;;;;;;;;;;;;;;;;5045708;28;19916;-61
2023/07/14 07:58:14;;;;;;;;;;;;;;;;;;5027598;28;19928;-62
2023/07/14 08:00:43;;;;;;;;;;;;;;;;;;5009243;28;20336;-63
2023/07/14 08:03:08;;;;;;;;;;;;;;;;;;5028195;28;19976;-62
2023/07/14 08:05:33;;;;;;;;;;;;;;;;;;5044336;28;20721;-64
2023/07/14 08:08:01;;;;;;;;;;;;;;;;;;5021846;28;20016;-62
2023/07/14 08:10:26;;;;;;;;;;;;;;;;;;5013718;28;19917;-62
2023/07/14 08:12:52;;;;;;;;;;;;;;;;;;5036621;28;20006;-63
2023/07/14 08:15:20;;;;;;;;;;;;;;;;;;5031024;28;20002;-62
2023/07/14 08:17:46;;;;;;;;;;;;;;;;;;5043353;28;19920;-63
2023/07/14 08:20:12;;;;;;;;;;;;;;;;;;5033483;28;19965;-62
2023/07/14 08:22:40;;;;;;;;;;;;;;;;;;5046266;28;19984;-63
2023/07/14 08:25:07;;;;;;;;;;;;;;;;;;5025218;28;19947;-62
2023/07/14 08:27:35;;;;;;;;;;;;;;;;;;5027909;28;19920;-63
2023/07/14 08:30:05;;;;;;;;;;;;;;;;;;5044976;28;19927;-62
2023/07/14 08:32:36;;;;;;;;;;;;;;;;;;5014470;28;19951;-63
2023/07/14 08:35:02;;;;;;;;;;;;;;;;;;5015637;28;19921;-62
2023/07/14 08:37:30;;;;;;;;;;;;;;;;;;5015906;28;19931;-65
2023/07/14 08:39:56;;;;;;;;;;;;;;;;;;5031085;28;19924;-62
2023/07/14 08:42:21;;;;;;;;;;;;;;;;;;5015900;28;19974;-63
2023/07/14 08:44:46;;;;;;;;;;;;;;;;;;5044060;28;19978;-63
2023/07/14 08:47:14;;;;;;;;;;;;;;;;;;5029217;28;19920;-64
2023/07/14 08:49:42;;;;;;;;;;;;;;;;;;5028808;28;20821;-65
2023/07/14 08:52:10;;;;;;;;;;;;;;;;;;5033987;28;20489;-63
2023/07/14 08:54:40;;;;;;;;;;;;;;;;;;5032665;28;20016;-63
2023/07/14 08:57:06;;;;;;;;;;;;;;;;;;5010399;28;19924;-63
2023/07/14 08:59:31;;;;;;;;;;;;;;;;;;5028225;28;20041;-64
2023/07/14 09:01:59;;;;;;;;;;;;;;;;;;5029753;28;19920;-64
2023/07/14 09:04:24;;;;;;;;;;;;;;;;;;5030923;28;20021;-64
2023/07/14 09:06:52;;;;;;;;;;;;;;;;;;5003799;28;19936;-63
2023/07/14 09:09:23;;;;;;;;;;;;;;;;;;5016982;28;20241;-63
2023/07/14 09:11:51;;;;;;;;;;;;;;;;;;5013604;28;20065;-63
2023/07/14 09:14:19;;;;;;;;;;;;;;;;;;5046241;28;19920;-67
2023/07/14 09:16:44;;;;;;;;;;;;;;;;;;5030301;28;19916;-63
2023/07/14 09:19:12;;;;;;;;;;;;;;;;;;5047221;28;20007;-63
2023/07/14 09:21:39;;;;;;;;;;;;;;;;;;5051908;28;19917;-62
2023/07/14 09:24:04;;;;;;;;;;;;;;;;;;5019907;28;19920;-62
2023/07/14 09:26:29;;;;;;;;;;;;;;;;;;5051732;28;19967;-63
2023/07/14 09:28:57;;;;;;;;;;;;;;;;;;5035725;28;19968;-63
2023/07/14 09:31:22;;;;;;;;;;;;;;;;;;5048954;28;19921;-62
2023/07/14 09:33:48;;;;;;;;;;;;;;;;;;5050172;28;19978;-63
2023/07/14 09:36:13;;;;;;;;;;;;;;;;;;5015874;28;19929;-63
2023/07/14 09:38:38;;;;;;;;;;;;;;;;;;5024358;28;19917;-65
2023/07/14 09:41:07;;;;;;;;;;;;;;;;;;5022782;28;19927;-63
2023/07/14 09:43:32;;;;;;;;;;;;;;;;;;5013593;28;19975;-63
2023/07/14 09:46:00;;;;;;;;;;;;;;;;;;5012814;28;20647;-63
2023/07/14 09:48:26;;;;;;;;;;;;;;;;;;5005602;28;19917;-63
2023/07/14 09:50:52;;;;;;;;;;;;;;;;;;4999192;28;20387;-62
2023/07/14 09:53:20;;;;;;;;;;;;;;;;;;4996182;28;19987;-63
2023/07/14 09:55:45;;;;;;;;;;;;;;;;;;4993164;28;20842;-64
2023/07/14 09:58:13;;;;;;;;;;;;;;;;;;5008749;28;19959;-63
2023/07/14 10:00:41;;;;;;;;;;;;;;;;;;4995455;28;20041;-63
2023/07/14 10:03:08;;;;;;;;;;;;;;;;;;5012952;28;20001;-64
2023/07/14 10:05:36;;;;;;;;;;;;;;;;;;5024605;28;21441;-63
2023/07/14 10:08:01;;;;;;;;;;;;;;;;;;5031901;28;19924;-62
2023/07/14 10:10:28;;;;;;;;;;;;;;;;;;5033714;28;19921;-64
2023/07/14 10:12:53;;;;;;;;;;;;;;;;;;5023946;28;19916;-63
2023/07/14 10:15:22;;;;;;;;;;;;;;;;;;5043154;28;19935;-63
2023/07/14 10:17:47;;;;;;;;;;;;;;;;;;5033409;28;19917;-63
2023/07/14 10:20:16;;;;;;;;;;;;;;;;;;5023658;28;19940;-65
2023/07/14 10:22:44;;;;;;;;;;;;;;;;;;5033153;28;20011;-65
2023/07/14 10:25:12;;;;;;;;;;;;;;;;;;5021467;28;20020;-64
2023/07/14 10:27:37;;;;;;;;;;;;;;;;;;5017668;28;20799;-65
2023/07/14 10:30:06;;;;;;;;;;;;;;;;;;5013663;28;19916;-63
2023/07/14 10:32:31;;;;;;;;;;;;;;;;;;5033249;28;19921;-64
2023/07/14 10:34:59;;;;;;;;;;;;;;;;;;5012809;28;19924;-65
2023/07/14 10:37:27;;;;;;;;;;;;;;;;;;5046360;28;19921;-63
2023/07/14 10:39:55;;;;;;;;;;;;;;;;;;5005128;28;19952;-63
2023/07/14 10:42:23;;;;;;;;;;;;;;;;;;5028339;28;19983;-63
2023/07/14 10:44:48;;;;;;;;;;;;;;;;;;5045857;28;19917;-64
2023/07/14 10:47:16;;;;;;;;;;;;;;;;;;5027212;28;19916;-62
2023/07/14 10:49:41;;;;;;;;;;;;;;;;;;5043834;28;19928;-61
2023/07/14 10:52:06;;;;;;;;;;;;;;;;;;5027009;28;19927;-63
2023/07/14 10:54:32;;;;;;;;;;;;;;;;;;5014481;28;19927;-63
2023/07/14 10:56:57;;;;;;;;;;;;;;;;;;5007802;28;20000;-63
2023/07/14 10:59:22;;;;;;;;;;;;;;;;;;5023411;28;19920;-65
2023/07/14 11:01:50;;;;;;;;;;;;;;;;;;5027423;28;19935;-63
2023/07/14 11:04:16;;;;;;;;;;;;;;;;;;5012945;28;19922;-64
2023/07/14 11:06:44;;;;;;;;;;;;;;;;;;5028737;28;20045;-63
2023/07/14 11:09:09;;;;;;;;;;;;;;;;;;5027575;28;19920;-63
2023/07/14 11:11:37;;;;;;;;;;;;;;;;;;5014123;28;19920;-63
2023/07/14 11:14:05;;;;;;;;;;;;;;;;;;5031471;28;19952;-63
2023/07/14 11:16:30;;;;;;;;;;;;;;;;;;5027568;28;20015;-62
2023/07/14 11:19:01;;;;;;;;;;;;;;;;;;5030359;28;19928;-63
2023/07/14 11:21:27;;;;;;;;;;;;;;;;;;5025552;28;20381;-61
2023/07/14 11:23:53;;;;;;;;;;;;;;;;;;5026969;28;19921;-61
2023/07/14 11:26:18;;;;;;;;;;;;;;;;;;5027022;28;19959;-63
2023/07/14 11:28:44;;;;;;;;;;;;;;;;;;5027247;28;19939;-62
2023/07/14 11:31:12;;;;;;;;;;;;;;;;;;5011263;28;19920;-62
2023/07/14 11:33:37;;;;;;;;;;;;;;;;;;5043777;28;20073;-62
2023/07/14 11:36:03;;;;;;;;;;;;;;;;;;5043854;28;19928;-62
2023/07/14 11:38:28;;;;;;;;;;;;;;;;;;5011064;28;19920;-62
2023/07/14 11:40:56;;;;;;;;;;;;;;;;;;5030531;28;20023;-62
2023/07/14 11:43:28;;;;;;;;;;;;;;;;;;5028267;28;20011;-62
2023/07/14 11:45:53;;;;;;;;;;;;;;;;;;5013746;28;19927;-62
2023/07/14 11:48:19;;;;;;;;;;;;;;;;;;5014030;28;19921;-62
2023/07/14 11:50:44;;;;;;;;;;;;;;;;;;5010595;28;19936;-62
2023/07/14 11:53:12;;;;;;;;;;;;;;;;;;5031578;28;19920;-63
2023/07/14 11:55:41;;;;;;;;;;;;;;;;;;5014627;28;19968;-61
2023/07/14 11:58:06;;;;;;;;;;;;;;;;;;5007818;28;20170;-63
2023/07/14 12:00:31;;;;;;;;;;;;;;;;;;5015864;28;19928;-62
2023/07/14 12:02:57;;;;;;;;;;;;;;;;;;5026830;28;19916;-61
2023/07/14 12:05:25;;;;;;;;;;;;;;;;;;5026665;28;20561;-61
2023/07/14 12:07:50;;;;;;;;;;;;;;;;;;5043654;28;19921;-62
2023/07/14 12:10:19;;;;;;;;;;;;;;;;;;5045905;28;20339;-61
2023/07/14 12:12:44;;;;;;;;;;;;;;;;;;5046468;28;19967;-61
2023/07/14 12:15:14;;;;;;;;;;;;;;;;;;5048499;28;19930;-61
2023/07/14 12:17:40;;;;;;;;;;;;;;;;;;5014910;28;19978;-61
2023/07/14 12:20:06;;;;;;;;;;;;;;;;;;5026691;28;20937;-61
2023/07/14 12:22:31;;;;;;;;;;;;;;;;;;5043708;28;19923;-61
2023/07/14 12:24:57;;;;;;;;;;;;;;;;;;5009569;28;19921;-61
2023/07/14 12:27:22;;;;;;;;;;;;;;;;;;5026713;28;19924;-61
2023/07/14 12:29:50;;;;;;;;;;;;;;;;;;5009797;28;20005;-61
2023/07/14 12:32:16;;;;;;;;;;;;;;;;;;5025830;28;19924;-61
2023/07/14 12:34:41;;;;;;;;;;;;;;;;;;5042996;28;20120;-61
2023/07/14 12:37:06;;;;;;;;;;;;;;;;;;5011868;28;20207;-60
2023/07/14 12:39:32;;;;;;;;;;;;;;;;;;5047416;28;19916;-61
2023/07/14 12:41:57;;;;;;;;;;;;;;;;;;5047352;28;20821;-61
2023/07/14 12:44:24;;;;;;;;;;;;;;;;;;5013220;28;19916;-60
2023/07/14 12:46:49;;;;;;;;;;;;;;;;;;5016444;28;20042;-61
2023/07/14 12:49:14;;;;;;;;;;;;;;;;;;5029068;28;19916;-60
2023/07/14 12:51:41;;;;;;;;;;;;;;;;;;5046509;28;20032;-60
2023/07/14 12:54:06;;;;;;;;;;;;;;;;;;5031115;28;20015;-60
2023/07/14 12:56:34;;;;;;;;;;;;;;;;;;5037326;28;19935;-60
2023/07/14 12:59:00;;;;;;;;;;;;;;;;;;5052290;28;19924;-60
2023/07/14 13:01:25;;;;;;;;;;;;;;;;;;5036544;28;19920;-60
2023/07/14 13:03:50;;;;;;;;;;;;;;;;;;5033335;28;19917;-59
2023/07/14 13:06:16;;;;;;;;;;;;;;;;;;5019495;28;20047;-60
2023/07/14 13:08:47;;;;;;;;;;;;;;;;;;5032317;28;19931;-61
2023/07/14 13:11:14;;;;;;;;;;;;;;;;;;5050812;28;19916;-60
2023/07/14 13:13:44;;;;;;;;;;;;;;;;;;5049275;28;20094;-60
2023/07/14 13:16:09;;;;;;;;;;;;;;;;;;5025015;28;19924;-60
2023/07/14 13:18:36;;;;;;;;;;;;;;;;;;5049270;28;19920;-59
2023/07/14 13:21:01;;;;;;;;;;;;;;;;;;5033603;28;19920;-60
2023/07/14 13:23:29;;;;;;;;;;;;;;;;;;5034135;28;19963;-61
2023/07/14 13:25:55;;;;;;;;;;;;;;;;;;5034706;28;20004;-60
2023/07/14 13:28:20;;;;;;;;;;;;;;;;;;5034181;28;19947;-60
2023/07/14 13:30:46;;;;;;;;;;;;;;;;;;5034569;28;20264;-59
2023/07/14 13:33:11;;;;;;;;;;;;;;;;;;5008437;28;19923;-59
2023/07/14 13:35:36;;;;;;;;;;;;;;;;;;5050408;28;19979;-59
2023/07/14 13:38:04;;;;;;;;;;;;;;;;;;5047348;28;19920;-59
2023/07/14 13:40:29;;;;;;;;;;;;;;;;;;5030522;28;19928;-59
2023/07/14 13:43:00;;;;;;;;;;;;;;;;;;5047362;28;19957;-59
2023/07/14 13:45:25;;;;;;;;;;;;;;;;;;5033145;28;19917;-60
2023/07/14 13:47:53;;;;;;;;;;;;;;;;;;5045174;28;20062;-61
2023/07/14 13:50:21;;;;;;;;;;;;;;;;;;5016090;28;19916;-59
2023/07/14 13:52:49;;;;;;;;;;;;;;;;;;5025793;28;19923;-60
2023/07/14 13:55:20;;;;;;;;;;;;;;;;;;5030991;28;19920;-60
2023/07/14 13:57:48;;;;;;;;;;;;;;;;;;5010109;28;19970;-60
2023/07/14 14:00:14;;;;;;;;;;;;;;;;;;5015672;28;19916;-60
2023/07/14 14:02:42;;;;;;;;;;;;;;;;;;5048566;28;19927;-60
2023/07/14 14:05:12;;;;;;;;;;;;;;;;;;5030272;28;19994;-58
2023/07/14 14:07:41;;;;;;;;;;;;;;;;;;5030964;28;19924;-60
2023/07/14 14:10:06;;;;;;;;;;;;;;;;;;5028723;28;21958;-60
2023/07/14 14:12:31;;;;;;;;;;;;;;;;;;5049785;28;19917;-59
2023/07/14 14:14:57;;;;;;;;;;;;;;;;;;5031044;28;19935;-60
2023/07/14 14:17:22;;;;;;;;;;;;;;;;;;5031892;28;19945;-60
2023/07/14 14:19:47;;;;;;;;;;;;;;;;;;5043752;28;20722;-60
2023/07/14 14:22:15;;;;;;;;;;;;;;;;;;5046811;28;19923;-60
2023/07/14 14:24:40;;;;;;;;;;;;;;;;;;5027036;28;20335;-60
2023/07/14 14:27:08;;;;;;;;;;;;;;;;;;5028269;28;20482;-60
2023/07/14 14:29:36;;;;;;;;;;;;;;;;;;5028750;28;20008;-60
2023/07/14 14:32:01;;;;;;;;;;;;;;;;;;5046114;28;20003;-60
2023/07/14 14:34:28;;;;;;;;;;;;;;;;;;5013015;28;19917;-60
2023/07/14 14:36:56;;;;;;;;;;;;;;;;;;5045606;28;19929;-61
2023/07/14 14:39:21;;;;;;;;;;;;;;;;;;5026496;28;19936;-60
2023/07/14 14:41:47;;;;;;;;;;;;;;;;;;5028311;28;20482;-59
2023/07/14 14:44:15;;;;;;;;;;;;;;;;;;5030931;28;19958;-60
2023/07/14 14:46:43;;;;;;;;;;;;;;;;;;5048764;28;19917;-60
2023/07/14 14:49:08;;;;;;;;;;;;;;;;;;5017983;28;20425;-60
2023/07/14 14:51:33;;;;;;;;;;;;;;;;;;5029263;28;19916;-59
2023/07/14 14:53:58;;;;;;;;;;;;;;;;;;5029889;28;19921;-60
2023/07/14 14:56:24;;;;;;;;;;;;;;;;;;5046257;28;20042;-60
2023/07/14 14:58:49;;;;;;;;;;;;;;;;;;5031954;28;19916;-60
2023/07/14 15:01:15;;;;;;;;;;;;;;;;;;5045724;28;20504;-60
2023/07/14 15:03:40;;;;;;;;;;;;;;;;;;5043330;28;20014;-59
2023/07/14 15:06:08;;;;;;;;;;;;;;;;;;5028694;28;20007;-59
2023/07/14 15:08:36;;;;;;;;;;;;;;;;;;5024817;28;19920;-59
2023/07/14 15:11:01;;;;;;;;;;;;;;;;;;5027434;28;19975;-59
2023/07/14 15:13:26;;;;;;;;;;;;;;;;;;5027834;28;19928;-60
2023/07/14 15:15:52;;;;;;;;;;;;;;;;;;5043700;28;20053;-60
2023/07/14 15:18:18;;;;;;;;;;;;;;;;;;5025793;28;20006;-59
2023/07/14 15:20:43;;;;;;;;;;;;;;;;;;5044560;28;19986;-60
2023/07/14 15:23:08;;;;;;;;;;;;;;;;;;5049051;28;19920;-58
2023/07/14 15:25:34;;;;;;;;;;;;;;;;;;5013600;28;19921;-59
2023/07/14 15:28:02;;;;;;;;;;;;;;;;;;5047189;28;19920;-59
2023/07/14 15:30:27;;;;;;;;;;;;;;;;;;5021910;28;19923;-58
2023/07/14 15:32:55;;;;;;;;;;;;;;;;;;5015914;28;19920;-59
2023/07/14 15:35:20;;;;;;;;;;;;;;;;;;5026774;28;20418;-60
2023/07/14 15:37:45;;;;;;;;;;;;;;;;;;5025606;28;19924;-58
2023/07/14 15:40:13;;;;;;;;;;;;;;;;;;5025857;28;19920;-59
2023/07/14 15:42:44;;;;;;;;;;;;;;;;;;5027773;28;19923;-59
2023/07/14 15:45:09;;;;;;;;;;;;;;;;;;5026066;28;19927;-58
2023/07/14 15:47:35;;;;;;;;;;;;;;;;;;5024603;28;19920;-60
2023/07/14 15:50:00;;;;;;;;;;;;;;;;;;5008649;28;19916;-59
2023/07/14 15:52:26;;;;;;;;;;;;;;;;;;5043223;28;19920;-58
2023/07/14 15:54:53;;;;;;;;;;;;;;;;;;5026252;28;19970;-59
2023/07/14 15:57:19;;;;;;;;;;;;;;;;;;5041389;28;21725;-59
2023/07/14 15:59:44;;;;;;;;;;;;;;;;;;5025862;28;20322;-59
2023/07/14 16:02:09;;;;;;;;;;;;;;;;;;5026783;28;19917;-59
2023/07/14 16:04:37;;;;;;;;;;;;;;;;;;5029587;28;19927;-59
2023/07/14 16:07:03;;;;;;;;;;;;;;;;;;5029006;28;19920;-59
2023/07/14 16:09:28;;;;;;;;;;;;;;;;;;5038481;28;20356;-60
2023/07/14 16:11:56;;;;;;;;;;;;;;;;;;5013417;28;19917;-59
2023/07/14 16:14:24;;;;;;;;;;;;;;;;;;5026900;28;20014;-59
2023/07/14 16:16:50;;;;;;;;;;;;;;;;;;5044344;28;19924;-59
2023/07/14 16:19:15;;;;;;;;;;;;;;;;;;5024088;28;19926;-59
2023/07/14 16:21:40;;;;;;;;;;;;;;;;;;5045029;28;20392;-58
2023/07/14 16:24:06;;;;;;;;;;;;;;;;;;5045647;28;19921;-59
2023/07/14 16:26:34;;;;;;;;;;;;;;;;;;5026597;28;19917;-59
2023/07/14 16:29:01;;;;;;;;;;;;;;;;;;5032994;28;20376;-59
2023/07/14 16:31:29;;;;;;;;;;;;;;;;;;5051115;28;20530;-58
2023/07/14 16:33:54;;;;;;;;;;;;;;;;;;5033298;28;19920;-60
2023/07/14 16:36:20;;;;;;;;;;;;;;;;;;5050577;28;20502;-59
2023/07/14 16:38:48;;;;;;;;;;;;;;;;;;5032007;28;19920;-60
2023/07/14 16:41:13;;;;;;;;;;;;;;;;;;5030501;28;19966;-59